Time;durP1;ratioP1;P1;durP2;ratioP2;P2;SDS_P1;SDS_P2;PMS_P1;PMS_P2;Temp;Humidity;BMP_temperature;BMP_pressure;BME280_temperature;BME280_humidity;BME280_pressure;Samples;Min_cycle;Max_cycle;Signal;HPM_P1;HPM_P2
2023/12/15 00:01:55;;;;;;;0.38;0.30;;;;;;;4.59;92.84;93733.41;5064744;28;20143;-85
2023/12/15 00:04:21;;;;;;;0.52;0.38;;;;;;;4.59;92.69;93716.81;5065768;28;20043;-85
2023/12/15 00:06:46;;;;;;;0.55;0.30;;;;;;;4.61;92.39;93735.78;5066415;28;20020;-85
2023/12/15 00:09:11;;;;;;;0.30;0.20;;;;;;;4.58;91.79;93731.84;5066790;28;20032;-84
2023/12/15 00:11:37;;;;;;;1.65;0.73;;;;;;;4.56;91.27;93725.25;5066852;28;20028;-85
2023/12/15 00:14:03;;;;;;;0.60;0.30;;;;;;;4.61;91.16;93739.22;5066637;28;20513;-85
2023/12/15 00:16:28;;;;;;;1.48;0.40;;;;;;;4.67;91.63;93741.81;5065103;28;20025;-85
2023/12/15 00:18:54;;;;;;;0.63;0.38;;;;;;;4.66;91.24;93732.31;5064763;28;20033;-85
2023/12/15 00:21:19;;;;;;;0.50;0.40;;;;;;;4.64;91.38;93748.44;5066111;28;20024;-87
2023/12/15 00:23:45;;;;;;;1.08;0.40;;;;;;;4.66;91.43;93743.69;5064701;28;20103;-85
2023/12/15 00:26:10;;;;;;;1.15;0.50;;;;;;;4.65;91.02;93749.22;5065056;28;20055;-87
2023/12/15 00:28:35;;;;;;;0.82;0.38;;;;;;;4.66;90.83;93753.44;5065168;28;20041;-87
2023/12/15 00:31:01;;;;;;;0.25;0.25;;;;;;;4.70;90.91;93749.16;5066732;28;20028;-88
2023/12/15 00:33:26;;;;;;;0.35;0.20;;;;;;;4.67;91.05;93757.66;5066665;28;20303;-89
2023/12/15 00:35:52;;;;;;;0.55;0.28;;;;;;;4.72;91.25;93763.69;5066874;28;20032;-88
2023/12/15 00:38:17;;;;;;;0.43;0.30;;;;;;;4.77;91.94;93760.19;5066763;28;20301;-88
2023/12/15 00:40:46;;;;;;;0.45;0.30;;;;;;;4.80;92.26;93762.28;5067722;28;20029;-89
2023/12/15 00:43:21;;;;;;;0.43;0.40;;;;;;;4.76;92.22;93772.63;5070174;28;20020;-87
2023/12/15 00:45:54;;;;;;;0.57;0.20;;;;;;;4.81;93.27;93756.72;5067348;28;20131;-88
2023/12/15 00:48:30;;;;;;;0.20;0.20;;;;;;;4.80;92.88;93786.03;5068778;28;20090;-89
2023/12/15 00:51:35;;;;;;;0.50;0.35;;;;;;;4.76;92.31;93782.38;5069318;28;20020;-90
2023/12/15 00:54:12;;;;;;;0.82;0.38;;;;;;;4.72;93.70;93779.53;5067056;28;20088;-89
2023/12/15 00:56:38;;;;;;;0.30;0.30;;;;;;;4.70;93.09;93786.13;5066188;28;20021;-90
2023/12/15 00:59:04;;;;;;;0.32;0.22;;;;;;;4.71;93.79;93787.72;5065991;28;20369;-90
2023/12/15 01:01:29;;;;;;;0.40;0.30;;;;;;;4.73;93.77;93794.28;5065150;28;20029;-90
2023/12/15 01:03:55;;;;;;;0.30;0.30;;;;;;;4.73;94.12;93791.66;5066399;28;20035;-91
2023/12/15 01:06:20;;;;;;;0.28;0.20;;;;;;;4.71;93.44;93785.06;5065875;28;20025;-91
2023/12/15 01:08:46;;;;;;;1.80;0.40;;;;;;;4.68;93.17;93789.06;5065899;28;20021;-90
2023/12/15 01:11:11;;;;;;;0.85;0.40;;;;;;;4.66;93.49;93788.56;5064221;28;20020;-89
2023/12/15 01:13:37;;;;;;;1.10;0.50;;;;;;;4.66;93.94;93785.09;5064732;28;20097;-85
2023/12/15 01:16:06;;;;;;;0.98;0.50;;;;;;;4.59;93.64;93788.84;5064861;28;20028;-87
2023/12/15 01:18:32;;;;;;;0.57;0.40;;;;;;;4.63;94.69;93792.50;5064476;28;20012;-87
2023/12/15 01:20:57;;;;;;;0.40;0.40;;;;;;;4.57;94.24;93782.28;5064737;28;20091;-87
2023/12/15 01:23:23;;;;;;;0.32;0.32;;;;;;;4.58;94.25;93784.66;5064642;28;20016;-87
2023/12/15 01:25:48;;;;;;;2.08;0.40;;;;;;;4.53;93.97;93797.09;5064658;28;20048;-87
2023/12/15 01:28:14;;;;;;;0.70;0.40;;;;;;;4.60;94.43;93810.78;5063197;28;20071;-87
2023/12/15 01:30:39;;;;;;;0.68;0.47;;;;;;;4.56;94.53;93810.53;5063866;28;20017;-90
2023/12/15 01:33:05;;;;;;;0.82;0.47;;;;;;;4.54;94.14;93812.66;5063866;28;20021;-88
2023/12/15 01:35:31;;;;;;;0.40;0.30;;;;;;;4.59;94.01;93814.47;5063384;28;20023;-88
2023/12/15 01:37:56;;;;;;;0.20;0.20;;;;;;;4.52;94.66;93804.25;5063694;28;20349;-88
2023/12/15 01:40:22;;;;;;;0.50;0.40;;;;;;;4.54;94.28;93820.59;5063480;28;20024;-89
2023/12/15 01:42:47;;;;;;;0.98;0.30;;;;;;;4.57;94.08;93806.81;5063197;28;20020;-88
2023/12/15 01:45:13;;;;;;;0.17;0.17;;;;;;;4.50;93.89;93802.91;5064609;28;20040;-88
2023/12/15 01:47:39;;;;;;;0.77;0.40;;;;;;;4.53;93.16;93816.34;5064269;28;20029;-88
2023/12/15 01:50:07;;;;;;;0.35;0.28;;;;;;;4.52;93.98;93809.50;5064466;28;20067;-88
2023/12/15 01:52:33;;;;;;;0.32;0.30;;;;;;;4.54;94.66;93810.03;5064235;28;20025;-88
2023/12/15 01:54:58;;;;;;;0.47;0.30;;;;;;;4.57;94.37;93813.97;5063808;28;20100;-88
2023/12/15 01:57:24;;;;;;;0.65;0.55;;;;;;;4.56;95.71;93815.00;5063248;28;20048;-88
2023/12/15 01:59:49;;;;;;;0.38;0.38;;;;;;;4.52;95.26;93816.63;5062848;28;20166;-89
2023/12/15 02:02:18;;;;;;;1.00;0.60;;;;;;;4.55;95.92;93811.59;5063616;28;20017;-88
2023/12/15 02:04:44;;;;;;;0.90;0.57;;;;;;;4.46;95.18;93810.63;5064082;28;20020;-88
2023/12/15 02:07:10;;;;;;;0.63;0.50;;;;;;;4.50;95.23;93816.09;5064077;28;20021;-89
2023/12/15 02:09:37;;;;;;;1.02;0.52;;;;;;;4.51;95.54;93822.97;5064320;28;20024;-88
2023/12/15 02:12:03;;;;;;;0.35;0.35;;;;;;;4.42;95.82;93822.78;5063032;28;20227;-89
2023/12/15 02:14:29;;;;;;;1.00;0.57;;;;;;;4.43;95.78;93824.34;5064279;28;20092;-88
2023/12/15 02:16:55;;;;;;;1.33;0.73;;;;;;;4.36;95.99;93829.94;5062725;28;20258;-88
2023/12/15 02:19:20;;;;;;;1.55;0.75;;;;;;;4.42;95.63;93835.97;5063892;28;20013;-89
2023/12/15 02:21:46;;;;;;;0.88;0.60;;;;;;;4.42;95.60;93835.97;5064108;28;20329;-88
2023/12/15 02:24:11;;;;;;;0.80;0.52;;;;;;;4.43;96.09;93837.53;5064129;28;20051;-88
2023/12/15 02:26:37;;;;;;;1.83;0.90;;;;;;;4.43;95.29;93850.75;5062880;28;20021;-89
2023/12/15 02:29:02;;;;;;;1.20;0.88;;;;;;;4.44;95.61;93854.97;5063663;28;20021;-88
2023/12/15 02:31:28;;;;;;;1.27;0.60;;;;;;;4.40;95.58;93844.16;5063697;28;20095;-88
2023/12/15 02:33:53;;;;;;;2.58;1.17;;;;;;;4.48;95.47;93853.34;5062337;28;20335;-89
2023/12/15 02:36:20;;;;;;;2.08;1.08;;;;;;;4.46;95.53;93859.94;5063655;28;20020;-88
2023/12/15 02:38:45;;;;;;;3.58;1.10;;;;;;;4.47;95.85;93853.63;5063935;28;20013;-89
2023/12/15 02:41:11;;;;;;;2.15;1.25;;;;;;;4.41;95.56;93858.94;5062749;28;20354;-88
2023/12/15 02:43:38;;;;;;;3.03;1.70;;;;;;;4.48;95.68;93857.81;5063894;28;20017;-89
2023/12/15 02:46:04;;;;;;;2.78;1.65;;;;;;;4.46;96.06;93870.50;5062326;28;20170;-89
2023/12/15 02:48:30;;;;;;;3.40;1.88;;;;;;;4.42;96.03;93865.78;5063511;28;20092;-89
2023/12/15 02:50:55;;;;;;;4.13;2.40;;;;;;;4.43;96.13;93859.44;5063362;28;20032;-88
2023/12/15 02:53:20;;;;;;;3.92;2.40;;;;;;;4.36;95.63;93871.38;5063548;28;20020;-89
2023/12/15 02:55:46;;;;;;;4.70;2.45;;;;;;;4.36;96.03;93877.44;5063375;28;20024;-88
2023/12/15 02:58:12;;;;;;;3.55;2.15;;;;;;;4.39;96.46;93868.19;5063352;28;20044;-88
2023/12/15 03:00:37;;;;;;;2.97;1.92;;;;;;;4.41;96.17;93868.69;5063097;28;20058;-87
2023/12/15 03:03:03;;;;;;;2.88;1.88;;;;;;;4.37;96.61;93872.94;5063056;28;20293;-87
2023/12/15 03:05:28;;;;;;;2.90;1.60;;;;;;;4.37;96.84;93879.00;5063572;28;20031;-90
2023/12/15 03:07:54;;;;;;;4.45;2.15;;;;;;;4.37;96.94;93888.78;5062715;28;20273;-90
2023/12/15 03:10:40;;;;;;;4.18;2.30;;;;;;;4.35;96.12;93886.41;5063586;28;20071;-90
2023/12/15 03:13:05;;;;;;;5.03;2.40;;;;;;;4.28;96.13;93875.38;5063306;28;20108;-90
2023/12/15 03:15:30;;;;;;;6.40;2.58;;;;;;;4.33;96.05;93885.88;5063771;28;20027;-90
2023/12/15 03:17:56;;;;;;;5.22;2.40;;;;;;;4.29;96.41;93884.09;5063660;28;20017;-91
2023/12/15 03:20:21;;;;;;;6.47;2.95;;;;;;;4.30;96.07;93904.94;5063592;28;20029;-90
2023/12/15 03:22:47;;;;;;;7.30;3.05;;;;;;;4.22;95.10;93882.53;5062871;28;20048;-91
2023/12/15 03:25:12;;;;;;;5.60;3.08;;;;;;;4.34;95.86;93892.75;5064163;28;20025;-92
2023/12/15 03:27:38;;;;;;;5.40;3.20;;;;;;;4.30;95.45;93898.88;5063734;28;20050;-91
2023/12/15 03:30:04;;;;;;;7.40;4.50;;;;;;;4.31;94.66;93897.78;5063414;28;20100;-88
2023/12/15 03:32:29;;;;;;;7.25;4.47;;;;;;;4.34;94.56;93895.41;5062695;28;20027;-88
2023/12/15 03:34:55;;;;;;;8.98;4.30;;;;;;;4.38;94.50;93895.66;5062772;28;20185;-88
2023/12/15 03:37:20;;;;;;;6.65;4.00;;;;;;;4.31;94.35;93906.50;5062852;28;20028;-88
2023/12/15 03:39:46;;;;;;;7.38;4.65;;;;;;;4.36;93.94;93908.34;5061652;28;20021;-87
2023/12/15 03:42:12;;;;;;;8.13;4.63;;;;;;;4.37;93.34;93909.91;5061806;28;20361;-88
2023/12/15 03:44:39;;;;;;;9.60;4.80;;;;;;;4.39;93.41;93899.84;5061939;28;20021;-88
2023/12/15 03:47:06;;;;;;;8.65;3.97;;;;;;;4.39;92.12;93899.84;5062778;28;20386;-87
2023/12/15 03:49:31;;;;;;;8.70;4.95;;;;;;;4.38;92.83;93909.63;5062199;28;20054;-85
2023/12/15 03:51:57;;;;;;;7.28;4.03;;;;;;;4.37;93.70;93905.41;5062347;28;20025;-86
2023/12/15 03:54:22;;;;;;;7.57;4.05;;;;;;;4.41;93.36;93916.19;5062630;28;20315;-86
2023/12/15 03:56:57;;;;;;;9.40;5.25;;;;;;;4.38;93.46;93911.47;5062735;28;20329;-85
2023/12/15 03:59:23;;;;;;;9.63;4.80;;;;;;;4.39;93.43;93918.31;5066008;28;20250;-86
2023/12/15 04:01:49;;;;;;;7.30;4.25;;;;;;;4.40;93.36;93920.69;5066001;28;20059;-85
2023/12/15 04:04:14;;;;;;;8.68;4.85;;;;;;;4.43;93.96;93922.00;5065801;28;20041;-85
2023/12/15 04:06:40;;;;;;;8.57;4.80;;;;;;;4.38;94.01;93922.81;5065159;28;20086;-88
2023/12/15 04:09:05;;;;;;;7.43;4.72;;;;;;;4.38;93.97;93911.47;5066307;28;20043;-89
2023/12/15 04:11:31;;;;;;;8.55;5.57;;;;;;;4.38;94.30;93922.81;5065112;28;20260;-88
2023/12/15 04:13:57;;;;;;;8.73;4.78;;;;;;;4.37;94.91;93925.72;5066268;28;20040;-87
2023/12/15 04:16:22;;;;;;;11.88;5.75;;;;;;;4.38;95.38;93932.59;5066236;28;20100;-88
2023/12/15 04:18:48;;;;;;;8.40;5.18;;;;;;;4.34;94.94;93921.00;5065663;28;20021;-86
2023/12/15 04:21:13;;;;;;;9.98;5.45;;;;;;;4.32;95.20;93939.75;5064455;28;20099;-87
2023/12/15 04:23:39;;;;;;;6.63;4.72;;;;;;;4.31;96.44;93940.00;5064846;28;20052;-87
2023/12/15 04:26:04;;;;;;;10.75;4.93;;;;;;;4.20;96.64;93942.69;5064519;28;20103;-87
2023/12/15 04:28:30;;;;;;;8.65;5.47;;;;;;;4.25;96.62;93935.81;5065705;28;20029;-91
2023/12/15 04:30:56;;;;;;;9.70;5.63;;;;;;;4.27;96.53;93938.97;5067346;28;20032;-91
2023/12/15 04:33:21;;;;;;;8.63;5.05;;;;;;;4.24;96.86;93934.25;5074912;28;20024;-91
2023/12/15 04:35:47;;;;;;;9.23;5.00;;;;;;;4.30;96.95;93930.53;5076119;28;20021;-91
2023/12/15 04:38:15;;;;;;;7.75;4.80;;;;;;;4.35;97.06;93949.75;5068641;28;20069;-85
2023/12/15 04:40:42;;;;;;;8.80;5.15;;;;;;;4.32;96.59;93933.69;5065444;28;20020;-86
2023/12/15 04:43:07;;;;;;;8.75;4.70;;;;;;;4.31;97.00;93953.97;5065111;28;20370;-85
2023/12/15 04:45:33;;;;;;;10.98;5.90;;;;;;;4.32;96.41;93954.78;5064077;28;20576;-85
2023/12/15 04:47:58;;;;;;;11.55;4.88;;;;;;;4.29;96.46;93957.97;5064995;28;20346;-85
2023/12/15 04:50:23;;;;;;;8.07;4.95;;;;;;;4.30;96.22;93956.91;5064935;28;20027;-86
2023/12/15 04:52:49;;;;;;;6.80;5.05;;;;;;;4.30;95.75;93960.34;5065318;28;20062;-88
2023/12/15 04:55:14;;;;;;;8.35;5.10;;;;;;;4.31;95.61;93961.13;5065238;28;20021;-87
2023/12/15 04:57:40;;;;;;;6.10;4.22;;;;;;;4.27;95.67;93983.81;5064209;28;20070;-89
2023/12/15 05:00:07;;;;;;;8.77;4.88;;;;;;;4.34;95.66;93973.78;5065459;28;20330;-88
2023/12/15 05:02:33;;;;;;;7.00;4.20;;;;;;;4.36;94.79;93977.72;5065281;28;20025;-88
2023/12/15 05:04:58;;;;;;;8.70;4.22;;;;;;;4.37;94.81;93970.59;5065608;28;20025;-88
2023/12/15 05:07:24;;;;;;;6.65;3.90;;;;;;;4.32;94.24;93968.00;5064956;28;20032;-88
2023/12/15 05:09:49;;;;;;;6.47;4.13;;;;;;;4.36;93.40;93966.38;5063959;28;20032;-88
2023/12/15 05:12:15;;;;;;;7.15;3.53;;;;;;;4.34;93.19;93979.06;5064225;28;20219;-87
2023/12/15 05:14:40;;;;;;;6.85;4.40;;;;;;;4.37;92.87;93971.38;5064735;28;20219;-87
2023/12/15 05:17:05;;;;;;;6.85;3.72;;;;;;;4.32;92.89;93975.91;5064755;28;20024;-87
2023/12/15 05:19:31;;;;;;;5.78;3.35;;;;;;;4.31;93.01;93975.09;5064448;28;20196;-87
2023/12/15 05:21:56;;;;;;;6.05;3.38;;;;;;;4.26;92.71;93971.72;5065344;28;20028;-87
2023/12/15 05:24:21;;;;;;;7.93;3.47;;;;;;;4.30;93.59;93984.09;5065312;28;20021;-89
2023/12/15 05:26:47;;;;;;;6.20;3.33;;;;;;;4.32;93.71;93987.25;5065564;28;20371;-89
2023/12/15 05:29:12;;;;;;;7.82;4.18;;;;;;;4.32;93.38;93983.81;5064895;28;20048;-87
2023/12/15 05:31:38;;;;;;;5.85;3.28;;;;;;;4.31;93.20;93998.06;5064745;28;20088;-88
2023/12/15 05:34:04;;;;;;;7.55;4.10;;;;;;;4.21;93.42;93998.88;5064775;28;20033;-87
2023/12/15 05:36:29;;;;;;;7.25;3.70;;;;;;;4.14;92.62;93998.38;5063231;28;20028;-87
2023/12/15 05:38:54;;;;;;;6.97;3.75;;;;;;;4.20;92.95;94008.66;5063206;28;20021;-85
2023/12/15 05:41:20;;;;;;;6.22;3.72;;;;;;;4.19;93.22;94008.91;5063024;28;20093;-86
2023/12/15 05:43:45;;;;;;;7.97;4.35;;;;;;;4.20;93.37;94013.16;5063855;28;20037;-87
2023/12/15 05:46:11;;;;;;;7.10;4.10;;;;;;;4.13;92.97;94021.34;5064500;28;20025;-87
2023/12/15 05:48:36;;;;;;;6.68;4.38;;;;;;;4.19;93.60;94012.38;5063962;28;20045;-85
2023/12/15 05:51:02;;;;;;;7.43;4.32;;;;;;;4.19;93.47;94015.00;5063885;28;20200;-84
2023/12/15 05:53:29;;;;;;;6.35;4.30;;;;;;;4.18;93.37;94021.31;5063692;28;20040;-89
2023/12/15 05:55:54;;;;;;;7.45;3.42;;;;;;;4.15;93.48;94013.97;5063734;28;20322;-86
2023/12/15 05:58:20;;;;;;;7.10;4.32;;;;;;;4.17;93.68;94024.22;5063476;28;20033;-84
2023/12/15 06:00:45;;;;;;;9.60;5.07;;;;;;;4.14;93.40;94027.41;5063932;28;20044;-84
2023/12/15 06:03:10;;;;;;;6.32;3.70;;;;;;;4.16;93.61;94030.56;5063719;28;20319;-84
2023/12/15 06:05:36;;;;;;;7.85;4.55;;;;;;;4.09;93.72;94030.84;5062363;28;20044;-83
2023/12/15 06:08:02;;;;;;;8.65;4.57;;;;;;;4.08;93.88;94025.84;5063687;28;20021;-84
2023/12/15 06:10:28;;;;;;;11.32;5.93;;;;;;;4.08;94.12;94023.22;5063430;28;20028;-84
2023/12/15 06:12:53;;;;;;;7.75;4.75;;;;;;;4.13;94.58;94026.63;5063216;28;20020;-83
2023/12/15 06:15:19;;;;;;;8.48;4.28;;;;;;;4.05;94.13;94042.19;5063405;28;20021;-81
2023/12/15 06:17:44;;;;;;;7.93;4.70;;;;;;;4.04;94.55;94038.78;5063519;28;20039;-81
2023/12/15 06:20:13;;;;;;;11.00;6.20;;;;;;;4.01;94.23;94045.38;5061972;28;20032;-81
2023/12/15 06:22:38;;;;;;;8.23;4.68;;;;;;;4.05;94.66;94050.09;5063198;28;20139;-79
2023/12/15 06:25:04;;;;;;;11.00;5.35;;;;;;;4.06;94.57;94047.22;5063153;28;20025;-84
2023/12/15 06:27:31;;;;;;;9.30;5.40;;;;;;;4.08;94.81;94057.50;5063435;28;20028;-86
2023/12/15 06:29:57;;;;;;;7.80;4.90;;;;;;;4.17;95.23;94048.78;5062493;28;20025;-86
2023/12/15 06:32:22;;;;;;;9.40;5.03;;;;;;;4.10;94.95;94058.81;5062053;28;20084;-88
2023/12/15 06:34:47;;;;;;;9.93;5.93;;;;;;;4.02;94.97;94057.50;5063910;28;20025;-87
2023/12/15 06:37:13;;;;;;;10.18;5.43;;;;;;;4.03;95.85;94060.94;5065946;28;20127;-86
2023/12/15 06:39:39;;;;;;;11.88;5.65;;;;;;;4.00;95.84;94079.94;5063471;28;20040;-83
2023/12/15 06:42:05;;;;;;;9.68;5.43;;;;;;;4.04;96.33;94062.50;5063899;28;20035;-86
2023/12/15 06:44:31;;;;;;;12.13;6.00;;;;;;;4.06;96.75;94075.44;5063075;28;20021;-86
2023/12/15 06:46:56;;;;;;;8.95;5.10;;;;;;;4.04;96.81;94067.78;5063507;28;20020;-86
2023/12/15 06:49:30;;;;;;;9.73;5.22;;;;;;;4.06;96.50;94072.81;5063207;28;20024;-80
2023/12/15 06:51:56;;;;;;;9.82;5.78;;;;;;;3.99;96.53;94081.78;5062952;28;20027;-81
2023/12/15 06:54:21;;;;;;;14.82;5.70;;;;;;;3.96;96.99;94086.78;5061513;28;20319;-80
2023/12/15 06:56:46;;;;;;;9.68;5.95;;;;;;;3.87;97.30;94097.09;5060897;28;20017;-80
2023/12/15 06:59:12;;;;;;;8.82;4.90;;;;;;;3.93;97.44;94100.50;5061571;28;20219;-80
2023/12/15 07:01:37;;;;;;;9.10;5.43;;;;;;;3.91;98.06;94107.88;5060617;28;20025;-81
2023/12/15 07:04:03;;;;;;;9.48;4.90;;;;;;;3.89;98.67;94110.81;5060484;28;20029;-80
2023/12/15 07:06:28;;;;;;;9.60;4.68;;;;;;;3.88;98.68;94113.69;5059072;28;20028;-80
2023/12/15 07:08:54;;;;;;;12.93;5.20;;;;;;;3.93;98.43;94116.31;5059693;28;20112;-82
2023/12/15 07:11:20;;;;;;;6.97;4.32;;;;;;;3.88;98.47;94114.47;5060401;28;20017;-80
2023/12/15 07:13:46;;;;;;;7.65;4.13;;;;;;;3.92;98.61;94117.38;5060788;28;20330;-81
2023/12/15 07:16:12;;;;;;;6.10;3.80;;;;;;;3.88;98.69;94125.03;5061911;28;20033;-80
2023/12/15 07:18:37;;;;;;;9.65;5.38;;;;;;;3.89;98.33;94120.53;5060748;28;20039;-80
2023/12/15 07:21:03;;;;;;;6.75;3.95;;;;;;;3.87;98.42;94120.00;5060789;28;20067;-81
2023/12/15 07:23:28;;;;;;;5.40;3.50;;;;;;;3.88;98.07;94122.38;5061000;28;20021;-80
2023/12/15 07:25:54;;;;;;;7.95;3.70;;;;;;;3.93;97.80;94118.94;5060096;28;20048;-81
2023/12/15 07:28:19;;;;;;;7.32;2.88;;;;;;;3.94;98.16;94123.19;5061652;28;20311;-81
2023/12/15 07:30:44;;;;;;;7.53;3.78;;;;;;;3.99;97.88;94128.47;5061830;28;20028;-81
2023/12/15 07:33:10;;;;;;;10.07;5.22;;;;;;;3.88;98.05;94129.50;5065362;28;20025;-81
2023/12/15 07:35:36;;;;;;;9.88;4.85;;;;;;;3.85;97.45;94143.22;5066482;28;20025;-81
2023/12/15 07:38:01;;;;;;;10.00;4.80;;;;;;;3.82;97.44;94141.91;5066403;28;20028;-81
2023/12/15 07:40:27;;;;;;;7.38;4.30;;;;;;;3.86;97.79;94137.69;5066364;28;20070;-81
2023/12/15 07:42:53;;;;;;;6.65;3.90;;;;;;;3.85;98.72;94137.94;5066003;28;20048;-81
2023/12/15 07:45:18;;;;;;;8.43;4.00;;;;;;;3.82;99.43;94145.31;5066372;28;20029;-82
2023/12/15 07:47:46;;;;;;;8.95;4.20;;;;;;;3.76;99.29;94138.47;5066451;28;20033;-81
2023/12/15 07:50:13;;;;;;;9.02;4.50;;;;;;;3.81;99.58;94151.66;5066313;28;20299;-81
2023/12/15 07:52:38;;;;;;;7.65;4.55;;;;;;;3.77;99.73;94160.38;5066125;28;20108;-80
2023/12/15 07:55:04;;;;;;;8.68;4.78;;;;;;;3.86;99.75;94142.97;5065940;28;20032;-81
2023/12/15 07:57:32;;;;;;;5.10;2.80;;;;;;;3.78;98.74;94160.09;5065995;28;20376;-81
2023/12/15 07:59:57;;;;;;;5.88;3.63;;;;;;;3.81;99.01;94172.75;5064790;28;20083;-82
2023/12/15 08:02:23;;;;;;;5.03;3.13;;;;;;;3.78;99.47;94170.63;5064666;28;20033;-81
2023/12/15 08:04:48;;;;;;;6.60;4.15;;;;;;;3.76;99.64;94178.00;5064750;28;20315;-81
2023/12/15 08:07:14;;;;;;;6.22;3.97;;;;;;;3.89;99.37;94182.00;5065805;28;20021;-80
2023/12/15 08:09:39;;;;;;;6.72;4.03;;;;;;;3.85;99.75;94193.31;5065905;28;20044;-81
2023/12/15 08:12:05;;;;;;;5.53;3.42;;;;;;;3.87;100.00;94197.28;5065769;28;20020;-81
2023/12/15 08:14:30;;;;;;;4.90;2.75;;;;;;;3.88;99.66;94198.84;5065761;28;20024;-81
2023/12/15 08:16:56;;;;;;;5.05;3.15;;;;;;;3.93;99.13;94205.97;5064353;28;20223;-81
2023/12/15 08:19:21;;;;;;;6.00;3.30;;;;;;;3.95;99.15;94203.91;5066064;28;20016;-82
2023/12/15 08:21:48;;;;;;;7.68;3.05;;;;;;;3.96;98.83;94198.34;5065738;28;20238;-82
2023/12/15 08:24:14;;;;;;;4.65;2.85;;;;;;;3.99;98.56;94202.31;5065775;28;20024;-82
2023/12/15 08:26:39;;;;;;;5.00;3.03;;;;;;;4.00;97.95;94195.97;5066520;28;20056;-81
2023/12/15 08:29:04;;;;;;;4.95;2.92;;;;;;;3.97;98.12;94188.59;5065531;28;20102;-82
2023/12/15 08:31:30;;;;;;;5.30;2.67;;;;;;;4.04;97.94;94207.59;5066050;28;20029;-82
2023/12/15 08:33:55;;;;;;;6.40;3.17;;;;;;;4.10;97.66;94203.09;5066074;28;20016;-82
2023/12/15 08:36:21;;;;;;;6.13;3.28;;;;;;;4.16;97.92;94205.47;5065919;28;20092;-82
2023/12/15 08:38:46;;;;;;;4.90;2.72;;;;;;;4.24;98.07;94208.66;5064506;28;20013;-81
2023/12/15 08:41:12;;;;;;;6.57;2.28;;;;;;;4.26;96.87;94202.06;5065202;28;20024;-82
2023/12/15 08:43:38;;;;;;;3.38;1.85;;;;;;;4.24;94.53;94206.81;5065283;28;20016;-82
2023/12/15 08:46:03;;;;;;;3.90;2.30;;;;;;;4.36;94.67;94207.31;5064218;28;20028;-81
2023/12/15 08:48:29;;;;;;;4.20;2.20;;;;;;;4.36;94.64;94209.19;5065455;28;20369;-82
2023/12/15 08:50:54;;;;;;;4.90;1.90;;;;;;;4.40;94.82;94204.94;5065659;28;20017;-82
2023/12/15 08:53:20;;;;;;;4.38;2.42;;;;;;;4.51;94.70;94205.72;5065398;28;20021;-81
2023/12/15 08:55:46;;;;;;;4.25;2.15;;;;;;;4.58;94.42;94207.03;5065379;28;20025;-81
2023/12/15 08:58:12;;;;;;;3.97;2.58;;;;;;;4.66;94.18;94203.06;5065594;28;20043;-81
2023/12/15 09:00:37;;;;;;;3.88;2.17;;;;;;;4.72;94.29;94202.00;5065386;28;20101;-80
2023/12/15 09:03:03;;;;;;;5.10;2.60;;;;;;;4.66;92.99;94216.28;5065242;28;20028;-81
2023/12/15 09:05:29;;;;;;;6.80;3.42;;;;;;;4.69;93.58;94222.88;5064990;28;20025;-79
2023/12/15 09:07:55;;;;;;;9.05;4.93;;;;;;;4.68;93.59;94221.25;5064812;28;20021;-79
2023/12/15 09:10:22;;;;;;;11.07;5.20;;;;;;;4.71;93.36;94204.91;5064783;28;20044;-79
2023/12/15 09:12:48;;;;;;;7.22;4.30;;;;;;;4.75;93.79;94203.31;5064689;28;20021;-79
2023/12/15 09:15:14;;;;;;;7.90;4.70;;;;;;;4.80;93.79;94204.09;5065143;28;20086;-79
2023/12/15 09:17:41;;;;;;;11.77;4.88;;;;;;;4.90;93.57;94200.63;5064891;28;20242;-79
2023/12/15 09:20:07;;;;;;;8.25;5.22;;;;;;;4.99;93.55;94196.38;5064612;28;20020;-81
2023/12/15 09:22:33;;;;;;;9.30;5.50;;;;;;;5.02;93.31;94203.75;5064881;28;20048;-83
2023/12/15 09:24:58;;;;;;;11.05;5.38;;;;;;;5.07;93.11;94208.25;5063781;28;20128;-82
2023/12/15 09:27:24;;;;;;;11.80;5.38;;;;;;;5.07;93.31;94204.78;5063100;28;20021;-82
2023/12/15 09:29:49;;;;;;;11.05;4.97;;;;;;;5.08;93.12;94199.25;5064891;28;20028;-82
2023/12/15 09:32:15;;;;;;;8.10;4.55;;;;;;;5.11;93.35;94193.44;5064997;28;20052;-82
2023/12/15 09:34:40;;;;;;;7.38;4.10;;;;;;;5.10;93.43;94206.91;5064570;28;20020;-82
2023/12/15 09:37:06;;;;;;;7.88;4.10;;;;;;;5.10;92.65;94201.63;5064494;28;20033;-81
2023/12/15 09:39:31;;;;;;;10.80;5.20;;;;;;;5.08;92.88;94204.53;5064504;28;20016;-81
2023/12/15 09:41:57;;;;;;;15.90;6.88;;;;;;;5.13;92.12;94195.78;5064348;28;20021;-81
2023/12/15 09:44:23;;;;;;;22.08;7.40;;;;;;;5.03;92.43;94201.91;5063328;28;20055;-81
2023/12/15 09:46:48;;;;;;;13.18;6.97;;;;;;;5.07;92.91;94199.50;5064481;28;20220;-82
2023/12/15 09:49:18;;;;;;;12.68;6.80;;;;;;;5.11;93.12;94195.25;5063383;28;20032;-83
2023/12/15 09:51:50;;;;;;;10.68;6.07;;;;;;;5.08;93.12;94201.88;5064248;28;20025;-81
2023/12/15 09:54:16;;;;;;;11.32;5.90;;;;;;;5.12;92.94;94199.50;5063771;28;20107;-82
2023/12/15 09:56:42;;;;;;;9.85;5.63;;;;;;;5.11;93.22;94198.72;5064015;28;20215;-81
2023/12/15 09:59:08;;;;;;;13.20;7.05;;;;;;;5.18;93.58;94206.34;5064254;28;20029;-81
2023/12/15 10:01:33;;;;;;;12.27;6.43;;;;;;;5.23;93.46;94207.13;5062880;28;20033;-81
2023/12/15 10:03:59;;;;;;;8.52;5.78;;;;;;;5.34;93.19;94207.09;5064050;28;20031;-78
2023/12/15 10:06:25;;;;;;;9.30;5.82;;;;;;;5.38;91.84;94197.53;5063718;28;20033;-78
2023/12/15 10:08:51;;;;;;;9.27;6.05;;;;;;;5.41;91.59;94199.63;5063966;28;20028;-77
2023/12/15 10:11:17;;;;;;;12.77;6.75;;;;;;;5.45;91.21;94198.03;5063984;28;20029;-76
2023/12/15 10:13:43;;;;;;;8.98;5.60;;;;;;;5.52;90.84;94197.75;5063906;28;20021;-76
2023/12/15 10:16:09;;;;;;;12.80;5.95;;;;;;;5.48;89.60;94209.94;5063292;28;20045;-76
2023/12/15 10:18:35;;;;;;;9.93;5.82;;;;;;;5.48;90.34;94217.88;5063728;28;20016;-76
2023/12/15 10:21:01;;;;;;;10.77;6.45;;;;;;;5.49;90.98;94222.84;5063821;28;20253;-76
2023/12/15 10:23:28;;;;;;;19.30;8.32;;;;;;;5.53;91.06;94225.75;5063617;28;20025;-74
2023/12/15 10:25:54;;;;;;;22.98;11.40;;;;;;;5.50;91.19;94231.59;5063631;28;20367;-74
2023/12/15 10:28:20;;;;;;;18.75;8.88;;;;;;;5.50;90.58;94226.31;5062121;28;20180;-75
2023/12/15 10:30:46;;;;;;;16.77;9.50;;;;;;;5.47;90.98;94221.56;5063289;28;20093;-77
2023/12/15 10:33:15;;;;;;;22.13;10.02;;;;;;;5.52;91.57;94221.53;5063448;28;20020;-77
2023/12/15 10:35:41;;;;;;;15.25;8.98;;;;;;;5.54;91.65;94220.19;5063636;28;20063;-82
2023/12/15 10:38:07;;;;;;;13.02;8.10;;;;;;;5.50;91.13;94224.44;5063276;28;20116;-79
2023/12/15 10:40:32;;;;;;;14.93;8.90;;;;;;;5.53;91.19;94229.19;5063343;28;20031;-79
2023/12/15 10:42:59;;;;;;;15.32;8.55;;;;;;;5.60;90.75;94231.56;5063269;28;20045;-78
2023/12/15 10:45:26;;;;;;;19.67;7.78;;;;;;;5.60;90.54;94223.63;5063131;28;20079;-77
2023/12/15 10:47:53;;;;;;;13.85;8.15;;;;;;;5.67;91.72;94226.75;5062775;28;20033;-75
2023/12/15 10:50:19;;;;;;;10.38;6.85;;;;;;;5.78;92.32;94230.09;5062914;28;20051;-75
2023/12/15 10:52:45;;;;;;;6.85;3.95;;;;;;;5.82;90.50;94239.09;5063004;28;20028;-75
2023/12/15 10:55:12;;;;;;;8.10;4.15;;;;;;;5.79;88.41;94240.41;5063268;28;20033;-75
2023/12/15 10:57:38;;;;;;;6.97;4.15;;;;;;;5.77;86.90;94245.19;5062979;28;20047;-75
2023/12/15 11:00:05;;;;;;;7.40;4.30;;;;;;;5.86;85.63;94244.63;5062604;28;20099;-75
2023/12/15 11:02:33;;;;;;;7.32;4.50;;;;;;;5.93;85.46;94245.13;5062740;28;20021;-76
2023/12/15 11:05:00;;;;;;;5.85;3.45;;;;;;;5.97;83.96;94248.84;5062653;28;20066;-74
2023/12/15 11:07:27;;;;;;;6.00;3.97;;;;;;;5.96;82.35;94242.75;5065843;28;20049;-75
2023/12/15 11:09:52;;;;;;;8.00;4.55;;;;;;;5.97;83.23;94239.03;5066700;28;20053;-76
2023/12/15 11:12:31;;;;;;;10.25;5.50;;;;;;;5.97;84.35;94246.97;5066944;28;20032;-75
2023/12/15 11:14:59;;;;;;;9.18;4.88;;;;;;;5.97;84.40;94243.53;5066562;28;20021;-75
2023/12/15 11:17:26;;;;;;;10.48;6.20;;;;;;;5.86;82.81;94236.69;5066485;28;20052;-75
2023/12/15 11:20:09;;;;;;;10.10;6.00;;;;;;;5.73;83.57;94238.09;5066416;28;20084;-76
2023/12/15 11:23:08;;;;;;;6.75;4.35;;;;;;;5.48;83.79;94245.09;5066607;28;20025;-79
2023/12/15 11:25:52;;;;;;;18.35;6.25;;;;;;;5.27;83.35;94247.03;5066450;28;20331;-80
2023/12/15 11:28:18;;;;;;;8.02;3.70;;;;;;;5.19;84.73;94248.38;5066450;28;20189;-78
2023/12/15 11:30:51;;;;;;;5.85;2.90;;;;;;;5.09;84.50;94258.97;5066440;28;20204;-79
2023/12/15 11:33:39;;;;;;;6.75;3.05;;;;;;;4.99;85.53;94275.63;5065520;28;20029;-80
2023/12/15 11:36:06;;;;;;;7.30;3.30;;;;;;;4.99;87.00;94272.97;5065311;28;20032;-79
2023/12/15 11:38:32;;;;;;;4.72;3.20;;;;;;;5.01;88.63;94270.09;5066495;28;20036;-79